Loray, North Carolina
Current Conditions -  °F | °C
As of 6:55 PM on Monday 22 Dec 2014 (Local Time) from KSVH Reporting Station
Haze Haze  
Wind Chill: 29°   Ceiling: 300
Heat Index: 36°   Visibility: 2.5mi
Dew Point: 35°   Wind: 8mph
Humidity: 99%   Direction: 50°NE
Pressure: 30.04"   Gusts: NA
Location:  35.8306°N, 80.9003°W
Report Text: KSVH 222355Z AUTO 05007KT 2 1/2SM BR OVC003 02/02 A3004 RMK AO2 T00200018 10025 20020
Loading
Personal Weather Stations






























Interactive Weather Map New forecast layout! Learn more

10-Day Weather Forecast

Advertisements
Track Severe Weather on mobile